Rancho Encantada, CA

9:47 PM PST on December 05, 2016 (GMT -0800)
Stonebridge | | Change Station

Elev 906 ft 32.92 °N, 117.02 °W | Updated 17 seconds ago

Haze
Haze
55.0 °F
Feels Like 55.0 °F
N
3.1
Wind Variable Wind from SE
Gusts 3.1 mph

Today
High -- | Low -- °F
--% Chance of Precip.
Yesterday
High -- | Low -- °F
Precip. -- in
Pressure 29.98 in
Visibility 6.0 miles
Clouds Overcast 2100 ft
Dew Point 51 °F
Humidity 87%
Rainfall 0.00 in
Snow Depth Not available.
6:36 AM 4:41 PM
Waxing Crescent, 38% visible
METAR KSEE 060535Z AUTO 15004KT 6SM HZ OVC021 14/11 A2998 RMK AO2
Pressure 29.98 in
Visibility 6.0 miles
Clouds Overcast 2100 ft
Dew Point 51 °F
Humidity 87%
Rainfall 0.00 in
Snow Depth Not available.
6:36 AM 4:41 PM
Waxing Crescent, 38% visible
METAR KSEE 060535Z AUTO 15004KT 6SM HZ OVC021 14/11 A2998 RMK AO2

10-Day Weather Forecast

Almanac

Astronomy

Dec. 05, 2016 Rise Set
Actual Time
Civil Twilight
Nautical Twilight
Astronomical Twilight
Moon
Length of Visible Light
Length of Day
Tomorrow will be .
, % of the Moon is Illuminated

Today's Extremes

State Highs State Lows

Community

WunderPhotos

Upload Photos

1,955,931 photos uploaded!

WunderBlog® & News

Nearby

Air Quality

  Air Quality AQ Index Pollutant
Not available.

Snow Depth

Station Depth Elevation

Earthquake Activity

City Distance Mag. Time & Date
Minimum magnitude displayed is 2.5.

Coastal Water Temperatures

Place Temperature

Stations

Nearby Weather Stations

Station Location Temp. Windchill Dew Point Humidity Wind Precip. Elev Updated Type
                   

Watches & Warnings

There are currently no watches in effect.